createdAt,value
2022-11-29T00:01:37.708Z,71.81
2022-11-29T00:04:05.397Z,71.60
2022-11-29T00:06:34.726Z,71.15
2022-11-29T00:09:06.993Z,71.36
2022-11-29T00:11:54.646Z,70.87
2022-11-29T00:14:23.340Z,69.88
2022-11-29T00:16:55.461Z,70.07
2022-11-29T00:19:22.836Z,70.05
2022-11-29T00:21:49.993Z,70.03
2022-11-29T00:24:17.741Z,70.37
2022-11-29T00:26:44.736Z,70.61
2022-11-29T00:29:13.119Z,70.27
2022-11-29T00:32:10.650Z,69.26
2022-11-29T00:34:37.757Z,70.20
2022-11-29T00:37:04.747Z,70.07
2022-11-29T00:39:31.911Z,69.05
2022-11-29T00:41:59.094Z,69.00
2022-11-29T00:44:26.050Z,68.76
2022-11-29T00:46:53.126Z,69.11
2022-11-29T00:49:20.196Z,69.75
2022-11-29T00:51:47.788Z,68.58
2022-11-29T00:54:14.993Z,68.83
2022-11-29T00:56:42.362Z,69.11
2022-11-29T00:59:11.839Z,69.72
2022-11-29T01:01:41.236Z,69.26
2022-11-29T01:04:10.159Z,69.58
2022-11-29T01:06:37.155Z,69.34
2022-11-29T01:09:05.260Z,69.00
2022-11-29T01:11:34.022Z,69.54
2022-11-29T01:14:02.288Z,69.11
2022-11-29T01:16:33.320Z,68.98
2022-11-29T01:19:00.656Z,68.70
2022-11-29T01:21:28.144Z,68.21
2022-11-29T01:23:55.518Z,68.00
2022-11-29T01:26:29.413Z,66.89
2022-11-29T01:28:58.307Z,66.93
2022-11-29T01:31:32.475Z,67.04
2022-11-29T01:34:01.361Z,67.83
2022-11-29T01:36:28.926Z,68.16
2022-11-29T01:38:56.504Z,68.47
2022-11-29T01:41:29.551Z,68.24
2022-11-29T01:44:26.172Z,68.42
2022-11-29T01:46:54.661Z,68.11
2022-11-29T01:49:27.419Z,68.91
2022-11-29T01:52:05.771Z,68.65
2022-11-29T01:54:37.192Z,68.68
2022-11-29T01:57:07.358Z,69.09
2022-11-29T01:59:36.910Z,68.36
2022-11-29T02:02:13.060Z,68.48
2022-11-29T02:04:43.781Z,69.04
2022-11-29T02:07:11.436Z,68.69
2022-11-29T02:09:41.187Z,68.19
2022-11-29T02:12:20.284Z,68.27
2022-11-29T02:15:15.008Z,67.76
2022-11-29T02:18:08.235Z,68.68
2022-11-29T02:20:47.601Z,67.86
2022-11-29T02:23:50.204Z,68.56
2022-11-29T02:26:54.371Z,68.65
2022-11-29T02:29:45.767Z,68.23
2022-11-29T02:32:50.434Z,68.05
2022-11-29T02:35:23.446Z,67.68
2022-11-29T02:37:59.621Z,67.24
2022-11-29T02:40:29.342Z,67.71
2022-11-29T02:43:02.127Z,67.13
2022-11-29T02:45:29.067Z,66.35
2022-11-29T02:48:29.296Z,66.33
2022-11-29T02:51:18.279Z,66.82
2022-11-29T02:54:26.554Z,67.77
2022-11-29T02:57:04.665Z,67.64
2022-11-29T02:59:47.262Z,67.34
2022-11-29T03:02:30.763Z,66.97
2022-11-29T03:05:36.102Z,66.42
2022-11-29T03:08:06.157Z,65.97
2022-11-29T03:10:52.471Z,66.67
2022-11-29T03:13:53.386Z,67.61
2022-11-29T03:16:43.282Z,67.92
2022-11-29T03:19:38.272Z,67.81
2022-11-29T03:22:20.174Z,67.16
2022-11-29T03:25:06.196Z,67.73
2022-11-29T03:27:47.694Z,66.66
2022-11-29T03:30:18.911Z,66.10
2022-11-29T03:32:45.976Z,65.56
2022-11-29T03:35:25.767Z,65.74
2022-11-29T03:37:55.573Z,66.62
2022-11-29T03:40:30.061Z,66.58
2022-11-29T03:43:09.273Z,67.19
2022-11-29T03:45:44.689Z,66.83
2022-11-29T03:48:33.218Z,66.29
2022-11-29T03:51:07.533Z,66.29
2022-11-29T03:53:50.299Z,66.05
2022-11-29T03:56:38.798Z,66.03
2022-11-29T03:59:30.457Z,66.56
2022-11-29T04:02:31.613Z,66.48
2022-11-29T04:05:10.719Z,66.59
2022-11-29T04:07:56.184Z,66.38
2022-11-29T04:11:00.317Z,67.18
2022-11-29T04:13:48.292Z,67.09
2022-11-29T04:16:36.553Z,66.71
2022-11-29T04:19:21.976Z,67.13
2022-11-29T04:22:23.335Z,66.41
2022-11-29T04:24:56.311Z,66.42
2022-11-29T04:27:35.569Z,66.77
2022-11-29T04:30:12.046Z,66.66
2022-11-29T04:32:42.013Z,66.01
2022-11-29T04:35:39.975Z,66.22
2022-11-29T04:38:37.700Z,65.18
2022-11-29T04:41:27.877Z,64.91
2022-11-29T04:44:15.633Z,64.61
2022-11-29T04:47:06.332Z,65.14
2022-11-29T04:50:01.400Z,64.22
2022-11-29T04:52:41.886Z,64.69
2022-11-29T04:55:38.990Z,65.03
2022-11-29T04:58:36.021Z,64.44
2022-11-29T05:01:15.421Z,65.11
2022-11-29T05:04:06.216Z,64.79
2022-11-29T05:06:43.558Z,64.71
2022-11-29T05:09:16.684Z,64.06
2022-11-29T05:12:00.741Z,63.93
2022-11-29T05:14:46.366Z,63.82
2022-11-29T05:17:34.690Z,64.05
2022-11-29T05:20:17.049Z,64.66
2022-11-29T05:23:04.691Z,64.44
2022-11-29T05:25:39.914Z,63.80
2022-11-29T05:28:20.683Z,64.25
2022-11-29T05:31:02.936Z,63.54
2022-11-29T05:33:51.972Z,63.85
2022-11-29T05:36:46.628Z,62.84
2022-11-29T05:39:31.910Z,63.27
2022-11-29T05:42:29.329Z,63.07
2022-11-29T05:45:09.989Z,62.88
2022-11-29T05:47:47.171Z,62.78
2022-11-29T05:50:19.165Z,63.29
2022-11-29T05:52:57.639Z,63.21
2022-11-29T05:55:45.137Z,64.09
2022-11-29T05:58:28.613Z,63.48
2022-11-29T06:01:23.139Z,64.26
2022-11-29T06:03:53.091Z,63.99
2022-11-29T06:06:31.570Z,63.91
2022-11-29T06:09:50.118Z,64.06
2022-11-29T06:12:22.077Z,63.63
2022-11-29T06:15:17.342Z,63.92
2022-11-29T06:18:31.244Z,63.23
2022-11-29T06:21:23.960Z,63.06
2022-11-29T06:24:29.942Z,62.74
2022-11-29T06:27:14.921Z,63.36
2022-11-29T06:29:50.133Z,63.83
2022-11-29T06:32:30.696Z,64.29
2022-11-29T06:35:35.170Z,64.94
2022-11-29T06:38:24.372Z,63.95
2022-11-29T06:40:57.229Z,64.02
2022-11-29T06:43:27.545Z,64.56
2022-11-29T06:46:05.924Z,64.02
2022-11-29T06:48:48.685Z,63.97
2022-11-29T06:51:34.644Z,63.59
2022-11-29T06:54:12.802Z,63.16
2022-11-29T06:56:52.344Z,62.83
2022-11-29T06:59:57.202Z,62.74
2022-11-29T07:03:03.174Z,62.37
2022-11-29T07:05:39.446Z,62.90
2022-11-29T07:08:18.937Z,62.58
2022-11-29T07:10:51.468Z,63.42
2022-11-29T07:13:23.765Z,63.19
2022-11-29T07:15:53.737Z,62.98
2022-11-29T07:18:35.121Z,62.99
2022-11-29T07:21:11.149Z,63.34
2022-11-29T07:24:25.762Z,62.76
2022-11-29T07:27:07.711Z,62.05
2022-11-29T07:29:47.965Z,61.37
2022-11-29T07:32:24.016Z,62.21
2022-11-29T07:35:00.599Z,62.85
2022-11-29T07:37:52.242Z,63.02
2022-11-29T07:40:37.949Z,62.88
2022-11-29T07:43:17.636Z,63.02
2022-11-29T07:45:46.056Z,63.67
2022-11-29T07:48:13.738Z,63.42
2022-11-29T07:50:41.255Z,63.05
2022-11-29T07:53:18.765Z,63.00
2022-11-29T07:55:46.659Z,62.82
2022-11-29T07:58:15.723Z,62.22
2022-11-29T08:00:46.624Z,62.37
2022-11-29T08:03:16.566Z,61.73
2022-11-29T08:05:52.134Z,61.77
2022-11-29T08:08:19.360Z,61.30
2022-11-29T08:10:46.617Z,60.97
2022-11-29T08:13:16.934Z,61.96
2022-11-29T08:15:47.409Z,61.63
2022-11-29T08:18:15.566Z,61.27
2022-11-29T08:20:52.214Z,61.80
2022-11-29T08:23:33.654Z,61.30
2022-11-29T08:26:01.502Z,61.42
2022-11-29T08:28:28.484Z,61.23
2022-11-29T08:31:07.310Z,61.12
2022-11-29T08:33:41.838Z,60.36
2022-11-29T08:36:16.692Z,59.42
2022-11-29T08:38:45.069Z,58.98
2022-11-29T08:41:15.134Z,58.89
2022-11-29T08:43:42.486Z,59.64
2022-11-29T08:46:12.460Z,58.81
2022-11-29T08:48:43.898Z,58.98
2022-11-29T08:51:41.659Z,59.76
2022-11-29T08:54:17.406Z,59.68
2022-11-29T08:59:31.427Z,58.80
2022-11-29T09:01:58.596Z,59.74
2022-11-29T09:04:25.683Z,59.25
2022-11-29T09:06:52.638Z,59.58
2022-11-29T09:09:19.939Z,59.56
2022-11-29T09:15:59.373Z,58.52
2022-11-29T09:18:28.829Z,58.86
2022-11-29T09:20:55.795Z,59.00
2022-11-29T09:23:22.764Z,58.84
2022-11-29T09:25:53.956Z,58.64
2022-11-29T09:28:20.945Z,59.17
2022-11-29T09:30:47.925Z,59.53
2022-11-29T09:33:16.048Z,58.86
2022-11-29T09:35:43.236Z,58.35
2022-11-29T09:38:14.324Z,57.89
2022-11-29T09:41:32.166Z,58.20
2022-11-29T09:44:27.215Z,59.28
2022-11-29T09:47:21.764Z,57.88
2022-11-29T09:50:07.374Z,57.89
2022-11-29T09:52:55.303Z,56.52
2022-11-29T09:55:43.100Z,55.93
2022-11-29T09:58:15.898Z,55.90
2022-11-29T10:00:50.381Z,55.89
2022-11-29T10:03:21.097Z,55.52
2022-11-29T10:05:55.335Z,55.43
2022-11-29T10:08:47.239Z,54.08
2022-11-29T10:11:35.964Z,55.02
2022-11-29T10:14:14.180Z,55.16
2022-11-29T10:17:13.455Z,56.03
2022-11-29T10:19:50.886Z,55.71
2022-11-29T10:22:27.507Z,56.35
2022-11-29T10:24:59.258Z,57.25
2022-11-29T10:27:29.671Z,56.59
2022-11-29T10:30:02.992Z,56.75
2022-11-29T10:32:32.542Z,56.60
2022-11-29T10:35:01.146Z,56.15
2022-11-29T10:37:32.968Z,56.91
2022-11-29T10:40:04.587Z,56.35
2022-11-29T10:42:52.111Z,56.84
2022-11-29T10:45:34.035Z,56.49
2022-11-29T10:48:09.861Z,56.53
2022-11-29T10:50:39.623Z,56.73
2022-11-29T10:53:12.756Z,57.12
2022-11-29T10:55:53.595Z,57.28
2022-11-29T10:58:28.708Z,57.80
2022-11-29T11:01:07.644Z,57.79
2022-11-29T11:03:41.980Z,58.09
2022-11-29T11:06:11.562Z,58.78
2022-11-29T11:08:42.588Z,59.17
2022-11-29T11:11:10.951Z,59.27
2022-11-29T11:13:39.484Z,59.93
2022-11-29T11:16:18.233Z,59.62
2022-11-29T11:18:47.025Z,60.02
2022-11-29T11:21:18.154Z,59.10
2022-11-29T11:23:54.276Z,59.31
2022-11-29T11:26:22.258Z,59.24
2022-11-29T11:28:52.152Z,59.53
2022-11-29T11:31:33.036Z,59.44
2022-11-29T11:34:29.654Z,59.54
2022-11-29T11:37:14.954Z,60.18
2022-11-29T11:39:59.358Z,59.85
2022-11-29T11:42:38.361Z,59.67
2022-11-29T11:45:16.409Z,59.65
2022-11-29T11:47:46.778Z,58.97
2022-11-29T11:50:38.260Z,58.72
2022-11-29T11:53:37.376Z,59.48
2022-11-29T11:56:12.878Z,60.48
2022-11-29T11:58:45.862Z,60.75
2022-11-29T12:01:12.764Z,60.54
2022-11-29T12:03:59.124Z,60.74
2022-11-29T12:06:54.454Z,60.24
2022-11-29T12:09:40.810Z,60.12
2022-11-29T12:12:30.107Z,60.44
2022-11-29T12:15:08.419Z,61.11
2022-11-29T12:18:01.211Z,60.89
2022-11-29T12:20:37.162Z,61.57
2022-11-29T12:23:07.258Z,61.53
2022-11-29T12:25:48.780Z,62.20
2022-11-29T12:28:20.583Z,63.18
2022-11-29T12:31:21.572Z,62.96
2022-11-29T12:34:22.401Z,62.71
2022-11-29T12:37:14.071Z,62.84
2022-11-29T12:39:41.213Z,63.05
2022-11-29T12:42:37.220Z,63.19
2022-11-29T12:45:16.422Z,63.31
2022-11-29T12:47:54.193Z,63.50
2022-11-29T12:50:58.836Z,63.73
2022-11-29T12:53:53.912Z,63.96
2022-11-29T12:56:24.168Z,63.77
2022-11-29T12:59:18.815Z,64.31
2022-11-29T13:02:20.046Z,64.66
2022-11-29T13:05:22.114Z,64.65
2022-11-29T13:07:58.281Z,64.20
2022-11-29T13:10:29.975Z,64.95
2022-11-29T13:13:07.429Z,64.31
2022-11-29T13:15:54.820Z,64.44
2022-11-29T13:18:50.679Z,64.02
2022-11-29T13:21:29.388Z,63.84
2022-11-29T13:24:10.087Z,64.26
2022-11-29T13:26:42.094Z,64.49
2022-11-29T13:29:16.710Z,64.79
2022-11-29T13:31:51.658Z,64.77
2022-11-29T13:35:10.686Z,65.18
2022-11-29T13:38:22.180Z,65.20
2022-11-29T13:40:56.549Z,65.54
2022-11-29T13:43:45.550Z,65.43
2022-11-29T13:46:26.606Z,65.30
2022-11-29T13:48:54.897Z,65.44
2022-11-29T13:51:42.025Z,65.84
2022-11-29T13:54:33.090Z,65.38
2022-11-29T13:57:11.060Z,65.42
2022-11-29T13:59:47.129Z,65.35
2022-11-29T14:02:30.989Z,65.57
2022-11-29T14:05:02.008Z,65.64
2022-11-29T14:07:31.013Z,65.54
2022-11-29T14:10:07.388Z,65.35
2022-11-29T14:12:49.457Z,64.93
2022-11-29T14:15:51.236Z,65.17
2022-11-29T14:18:36.813Z,64.91
2022-11-29T14:21:10.149Z,64.91
2022-11-29T14:23:46.947Z,64.99
2022-11-29T14:26:28.517Z,65.06
2022-11-29T14:28:56.943Z,65.18
2022-11-29T14:31:59.609Z,65.33
2022-11-29T14:34:35.221Z,64.62
2022-11-29T14:37:39.806Z,64.72
2022-11-29T14:40:20.852Z,65.02
2022-11-29T14:42:48.862Z,65.52
2022-11-29T14:45:31.693Z,64.78
2022-11-29T14:47:59.494Z,65.21
2022-11-29T14:50:38.691Z,65.53
2022-11-29T14:53:33.435Z,65.08
2022-11-29T14:56:43.679Z,65.47
2022-11-29T14:59:48.446Z,65.56
2022-11-29T15:02:38.144Z,65.33
2022-11-29T15:05:31.628Z,65.76
2022-11-29T15:08:31.801Z,66.07
2022-11-29T15:11:12.878Z,66.17
2022-11-29T15:13:55.192Z,66.49
2022-11-29T15:16:46.607Z,66.75
2022-11-29T15:19:56.051Z,66.15
2022-11-29T15:23:34.626Z,65.95
2022-11-29T15:26:01.674Z,66.12
2022-11-29T15:28:29.909Z,66.42
2022-11-29T15:31:09.257Z,65.72
2022-11-29T15:33:40.423Z,65.46
2022-11-29T15:36:13.400Z,66.47
2022-11-29T15:38:46.757Z,66.71
2022-11-29T15:41:32.407Z,66.34
2022-11-29T15:44:03.981Z,67.35
2022-11-29T15:46:33.390Z,67.00
2022-11-29T15:49:22.532Z,67.57
2022-11-29T15:51:55.971Z,66.79
2022-11-29T15:54:38.478Z,67.10
2022-11-29T15:57:13.184Z,67.90
2022-11-29T15:59:55.552Z,67.77
2022-11-29T16:02:30.589Z,67.14
2022-11-29T16:05:03.427Z,68.13
2022-11-29T16:07:34.463Z,67.89
2022-11-29T16:10:26.451Z,67.67
2022-11-29T16:13:02.603Z,67.39
2022-11-29T16:15:39.384Z,67.28
2022-11-29T16:18:22.344Z,67.99
2022-11-29T16:21:01.169Z,68.11
2022-11-29T16:23:41.406Z,68.18
2022-11-29T16:26:14.949Z,67.78
2022-11-29T16:28:45.160Z,68.69
2022-11-29T16:31:38.002Z,68.09
2022-11-29T16:34:10.020Z,67.57
2022-11-29T16:36:38.335Z,67.21
2022-11-29T16:39:16.069Z,66.91
2022-11-29T16:41:43.148Z,67.76
2022-11-29T16:44:47.059Z,66.62
2022-11-29T16:47:23.197Z,65.85
2022-11-29T16:50:17.842Z,66.25
2022-11-29T16:52:45.344Z,66.60
2022-11-29T16:55:16.140Z,66.59
2022-11-29T16:57:44.942Z,67.19
2022-11-29T17:00:28.822Z,65.67
2022-11-29T17:02:55.986Z,66.06
2022-11-29T17:05:26.707Z,66.44
2022-11-29T17:07:55.955Z,66.12
2022-11-29T17:10:31.210Z,65.47
2022-11-29T17:12:58.452Z,66.29
2022-11-29T17:15:25.434Z,65.40
2022-11-29T17:17:52.588Z,65.20
2022-11-29T17:20:19.647Z,64.94
2022-11-29T17:22:46.726Z,65.10
2022-11-29T17:25:14.986Z,65.25
2022-11-29T17:27:42.015Z,65.05
2022-11-29T17:30:11.524Z,65.05
2022-11-29T17:32:41.086Z,65.61
2022-11-29T17:35:08.329Z,65.48
2022-11-29T17:37:37.697Z,64.73
2022-11-29T17:40:05.944Z,65.31
2022-11-29T17:42:33.912Z,65.06
2022-11-29T17:45:03.523Z,64.98
2022-11-29T17:48:06.624Z,65.13
2022-11-29T17:50:37.196Z,64.90
2022-11-29T17:53:08.408Z,65.30
2022-11-29T17:55:37.333Z,64.63
2022-11-29T17:58:04.312Z,64.87
2022-11-29T18:00:31.445Z,65.33
2022-11-29T18:02:59.166Z,65.22
2022-11-29T18:05:34.689Z,64.76
2022-11-29T18:08:02.312Z,64.36
2022-11-29T18:10:29.407Z,64.48
2022-11-29T18:12:56.534Z,64.17
2022-11-29T18:15:24.024Z,64.20
2022-11-29T18:17:51.084Z,64.70
2022-11-29T18:20:18.189Z,64.42
2022-11-29T18:22:45.322Z,64.24
2022-11-29T18:25:37.554Z,64.33
2022-11-29T18:27:59.536Z,64.27
2022-11-29T18:30:26.569Z,65.32
2022-11-29T18:32:53.789Z,65.26
2022-11-29T18:35:20.920Z,65.44
2022-11-29T18:38:14.118Z,65.14
2022-11-29T18:40:42.587Z,65.67
2022-11-29T18:43:10.740Z,66.24
2022-11-29T18:45:38.903Z,66.48
2022-11-29T18:48:07.293Z,66.49
2022-11-29T18:50:34.558Z,65.92
2022-11-29T18:53:01.782Z,65.94
2022-11-29T18:55:28.868Z,66.01
2022-11-29T18:57:58.921Z,66.87
2022-11-29T19:00:26.560Z,66.72
2022-11-29T19:02:56.632Z,66.99
2022-11-29T19:05:26.872Z,66.01
2022-11-29T19:07:58.664Z,65.98
2022-11-29T19:10:26.123Z,65.92
2022-11-29T19:12:53.273Z,66.12
2022-11-29T19:15:20.439Z,66.68
2022-11-29T19:17:47.603Z,66.22
2022-11-29T19:20:14.723Z,66.02
2022-11-29T19:22:42.409Z,65.86
2022-11-29T19:25:12.308Z,65.38
2022-11-29T19:27:40.357Z,65.79
2022-11-29T19:30:08.490Z,65.11
2022-11-29T19:32:36.410Z,65.31
2022-11-29T19:35:03.657Z,65.56
2022-11-29T19:37:30.942Z,69.22
2022-11-29T19:40:00.081Z,66.33
2022-11-29T19:42:27.378Z,65.21
2022-11-29T19:45:15.764Z,65.13
2022-11-29T19:47:43.262Z,65.14
2022-11-29T19:50:10.364Z,64.75
2022-11-29T19:52:39.554Z,64.64
2022-11-29T19:55:06.645Z,65.18
2022-11-29T19:57:33.740Z,64.57
2022-11-29T20:00:01.286Z,64.35
2022-11-29T20:02:30.765Z,64.83
2022-11-29T20:04:58.310Z,64.38
2022-11-29T20:07:26.040Z,64.35
2022-11-29T20:09:56.097Z,64.17
2022-11-29T20:12:23.219Z,64.34
2022-11-29T20:14:50.223Z,64.35
2022-11-29T20:17:17.521Z,64.43
2022-11-29T20:19:44.901Z,63.96
2022-11-29T20:22:12.093Z,64.10
2022-11-29T20:24:45.018Z,63.91
2022-11-29T20:27:37.142Z,64.19
2022-11-29T20:30:05.004Z,63.91
2022-11-29T20:32:32.071Z,63.67
2022-11-29T20:35:00.597Z,63.88
2022-11-29T20:37:38.814Z,63.90
2022-11-29T20:40:11.134Z,63.49
2022-11-29T20:43:39.551Z,63.44
2022-11-29T20:46:10.923Z,63.70
2022-11-29T20:48:48.354Z,63.50
2022-11-29T20:51:17.225Z,63.13
2022-11-29T20:53:46.315Z,63.42
2022-11-29T20:56:13.406Z,63.31
2022-11-29T20:58:40.823Z,63.54
2022-11-29T21:01:08.388Z,63.45
2022-11-29T21:03:35.840Z,63.36
2022-11-29T21:06:05.368Z,63.29
2022-11-29T21:08:35.983Z,63.90
2022-11-29T21:11:09.203Z,64.26
2022-11-29T21:13:37.227Z,64.04
2022-11-29T21:16:04.826Z,63.59
2022-11-29T21:18:32.373Z,63.58
2022-11-29T21:21:21.081Z,64.23
2022-11-29T21:24:18.969Z,64.25
2022-11-29T21:26:52.562Z,63.17
2022-11-29T21:29:22.287Z,63.41
2022-11-29T21:31:51.821Z,63.87
2022-11-29T21:34:19.683Z,63.57
2022-11-29T21:36:55.918Z,64.08
2022-11-29T21:39:27.437Z,63.57
2022-11-29T21:41:54.689Z,63.84
2022-11-29T21:44:21.817Z,63.88
2022-11-29T21:46:48.998Z,63.50
2022-11-29T21:49:16.009Z,63.72
2022-11-29T21:51:43.202Z,63.51
2022-11-29T21:54:10.304Z,63.14
2022-11-29T21:56:37.450Z,63.68
2022-11-29T21:59:04.668Z,63.66
2022-11-29T22:01:33.878Z,63.10
2022-11-29T22:04:01.469Z,63.21
2022-11-29T22:06:32.199Z,63.94
2022-11-29T22:09:00.097Z,67.04
2022-11-29T22:11:35.580Z,64.52
2022-11-29T22:14:18.039Z,65.00
2022-11-29T22:16:47.002Z,64.45
2022-11-29T22:19:17.094Z,63.73
2022-11-29T22:21:47.521Z,64.90
2022-11-29T22:24:16.781Z,65.24
2022-11-29T22:26:44.141Z,64.55
2022-11-29T22:29:14.303Z,65.82
2022-11-29T22:31:46.985Z,65.12
2022-11-29T22:34:14.674Z,64.96
2022-11-29T22:36:42.444Z,65.60
2022-11-29T22:39:09.496Z,65.40
2022-11-29T22:41:38.161Z,65.98
2022-11-29T22:44:06.276Z,65.76
2022-11-29T22:46:35.523Z,65.70
2022-11-29T22:49:03.940Z,66.54
2022-11-29T22:51:33.434Z,66.65
2022-11-29T22:54:03.238Z,66.63
2022-11-29T22:56:33.552Z,66.73
2022-11-29T22:59:00.613Z,66.59
2022-11-29T23:01:29.460Z,67.37
2022-11-29T23:03:58.634Z,67.46
2022-11-29T23:06:26.840Z,67.47
2022-11-29T23:08:56.124Z,66.46
2022-11-29T23:11:26.759Z,66.77
2022-11-29T23:13:54.279Z,66.49
2022-11-29T23:16:24.086Z,66.73
2022-11-29T23:18:52.032Z,67.23
2022-11-29T23:21:25.601Z,66.29
2022-11-29T23:23:56.317Z,66.17
2022-11-29T23:26:37.629Z,65.68
2022-11-29T23:29:16.414Z,66.52
2022-11-29T23:31:44.231Z,66.45
2022-11-29T23:34:11.897Z,65.39
2022-11-29T23:36:39.081Z,65.77
2022-11-29T23:39:07.154Z,66.32
2022-11-29T23:41:35.799Z,65.88
2022-11-29T23:44:04.534Z,66.89
2022-11-29T23:46:31.722Z,66.70
2022-11-29T23:48:58.754Z,66.44
2022-11-29T23:51:25.837Z,66.55
2022-11-29T23:53:53.998Z,66.53
2022-11-29T23:56:22.541Z,65.84
2022-11-29T23:58:49.993Z,66.59
